createdAt,value
2023-02-11T00:03:57.441Z,23.60
2023-02-11T00:10:00.930Z,23.70
2023-02-11T00:16:04.544Z,24.00
2023-02-11T00:22:10.835Z,22.80
2023-02-11T00:28:14.244Z,20.80
2023-02-11T00:34:17.787Z,22.00
2023-02-11T00:40:21.208Z,22.80
2023-02-11T00:46:24.985Z,23.30
2023-02-11T00:52:28.444Z,24.20
2023-02-11T00:58:32.105Z,21.90
2023-02-11T01:04:35.622Z,24.10
2023-02-11T01:10:35.119Z,23.80
2023-02-11T01:16:38.553Z,23.00
2023-02-11T01:22:40.646Z,20.80
2023-02-11T01:28:38.053Z,23.50
2023-02-11T01:34:41.448Z,23.60
2023-02-11T01:40:44.996Z,25.60
2023-02-11T01:46:39.827Z,21.30
2023-02-11T01:52:43.284Z,24.60
2023-02-11T01:58:39.808Z,23.70
2023-02-11T02:04:43.209Z,20.70
2023-02-11T02:10:46.744Z,24.60
2023-02-11T02:16:52.816Z,25.90
2023-02-11T02:23:01.922Z,21.60
2023-02-11T02:29:12.846Z,25.00
2023-02-11T02:35:31.310Z,25.80
2023-02-11T02:41:37.678Z,21.10
2023-02-11T02:47:39.579Z,23.20
2023-02-11T02:53:42.950Z,25.00
2023-02-11T02:59:52.030Z,26.40
2023-02-11T03:05:58.535Z,24.10
2023-02-11T03:12:02.001Z,26.00
2023-02-11T03:18:05.411Z,27.80
2023-02-11T03:24:17.682Z,25.30
2023-02-11T03:30:36.615Z,24.50
2023-02-11T03:36:43.056Z,26.30
2023-02-11T03:42:46.541Z,27.10
2023-02-11T03:48:50.081Z,25.60
2023-02-11T03:54:53.590Z,27.00
2023-02-11T04:00:56.288Z,24.50
2023-02-11T04:06:58.527Z,25.50
2023-02-11T04:13:01.893Z,29.60
2023-02-11T04:19:05.365Z,27.10
2023-02-11T04:25:08.755Z,26.90
2023-02-11T04:31:12.347Z,28.70
2023-02-11T04:37:15.722Z,27.40
2023-02-11T04:43:19.388Z,28.80
2023-02-11T04:49:22.774Z,27.20
2023-02-11T04:55:26.715Z,27.50
2023-02-11T05:01:30.103Z,29.10
2023-02-11T05:07:23.379Z,28.80
2023-02-11T05:13:25.386Z,27.40
2023-02-11T05:19:29.275Z,31.00
2023-02-11T05:25:21.538Z,30.40
2023-02-11T05:31:25.092Z,26.60
2023-02-11T05:37:21.135Z,30.30
2023-02-11T05:43:24.677Z,30.20
2023-02-11T05:49:28.089Z,32.20
2023-02-11T05:55:30.211Z,29.90
2023-02-11T06:01:33.625Z,32.60
2023-02-11T06:07:37.026Z,33.30
2023-02-11T06:13:39.263Z,32.90
2023-02-11T06:19:37.997Z,35.70
2023-02-11T06:25:41.584Z,33.30
2023-02-11T06:31:45.216Z,34.60
2023-02-11T06:37:48.827Z,33.80
2023-02-11T06:43:52.295Z,31.10
2023-02-11T06:49:55.806Z,36.10
2023-02-11T06:55:59.248Z,34.10
2023-02-11T07:01:55.975Z,32.00
2023-02-11T07:07:59.575Z,35.70
2023-02-11T07:14:03.181Z,34.70
2023-02-11T07:20:06.811Z,32.70
2023-02-11T07:26:00.238Z,33.50
2023-02-11T07:32:06.856Z,37.70
2023-02-11T07:38:10.736Z,34.10
2023-02-11T07:44:12.796Z,34.20
2023-02-11T07:50:16.191Z,37.10
2023-02-11T07:56:19.620Z,35.60
2023-02-11T08:02:23.210Z,33.70
2023-02-11T08:08:26.674Z,37.10
2023-02-11T08:14:28.559Z,36.00
2023-02-11T08:20:31.957Z,32.50
2023-02-11T08:26:35.662Z,35.00
2023-02-11T08:32:39.174Z,33.40
2023-02-11T08:38:42.580Z,32.40
2023-02-11T08:44:46.182Z,34.10
2023-02-11T08:50:49.647Z,29.80
2023-02-11T08:56:45.850Z,36.90
2023-02-11T09:02:49.241Z,34.20
2023-02-11T09:08:52.867Z,28.70
2023-02-11T09:14:56.421Z,29.10
2023-02-11T09:20:59.855Z,32.90
2023-02-11T09:27:06.019Z,32.20
2023-02-11T09:33:09.706Z,31.00
2023-02-11T09:39:13.121Z,33.30
2023-02-11T09:45:19.454Z,25.20
2023-02-11T09:51:28.930Z,30.90
2023-02-11T09:57:32.516Z,29.50
2023-02-11T10:04:00.659Z,29.00
2023-02-11T10:10:19.701Z,26.00
2023-02-11T10:16:26.440Z,28.80
2023-02-11T10:22:47.802Z,32.20
2023-02-11T10:28:54.173Z,26.20
2023-02-11T10:35:03.492Z,25.80
2023-02-11T10:41:07.004Z,29.00
2023-02-11T10:47:13.417Z,27.20
2023-02-11T10:53:25.928Z,25.80
2023-02-11T10:59:26.057Z,23.50
2023-02-11T11:05:38.378Z,24.70
2023-02-11T11:11:44.919Z,26.30
2023-02-11T11:17:48.976Z,23.30
2023-02-11T11:23:52.379Z,22.10
2023-02-11T11:29:55.937Z,24.50
2023-02-11T11:36:02.409Z,24.80
2023-02-11T11:42:21.434Z,22.40
2023-02-11T11:48:40.052Z,24.50
2023-02-11T11:54:49.470Z,20.50
2023-02-11T12:00:55.683Z,20.00
2023-02-11T12:06:59.221Z,19.20
2023-02-11T12:13:24.165Z,21.30
2023-02-11T12:20:01.148Z,18.30
2023-02-11T12:26:20.004Z,16.40
2023-02-11T12:32:32.648Z,16.80
2023-02-11T12:44:29.230Z,13.80
2023-02-11T12:50:32.876Z,15.30
2023-02-11T12:56:36.449Z,15.80
2023-02-11T13:09:11.870Z,13.90
2023-02-11T13:15:07.438Z,14.00
2023-02-11T13:21:13.577Z,15.00
2023-02-11T13:27:26.134Z,14.40
2023-02-11T13:33:34.793Z,14.10
2023-02-11T13:39:41.199Z,14.60
2023-02-11T13:45:45.303Z,13.80
2023-02-11T13:51:57.444Z,13.60
2023-02-11T13:58:07.796Z,13.60
2023-02-11T14:04:09.727Z,12.30
2023-02-11T14:10:14.667Z,13.40
2023-02-11T14:16:31.610Z,12.50
2023-02-11T14:22:43.994Z,11.30
2023-02-11T14:28:48.651Z,10.80
2023-02-11T14:34:51.646Z,12.40
2023-02-11T14:40:53.712Z,11.30
2023-02-11T14:46:58.154Z,11.50
2023-02-11T14:52:52.956Z,10.10
2023-02-11T14:58:34.363Z,9.60
2023-02-11T15:04:01.439Z,10.70
2023-02-11T15:09:39.116Z,11.10
2023-02-11T15:15:32.451Z,10.20
2023-02-11T15:20:51.227Z,9.00
2023-02-11T15:26:46.392Z,9.10
2023-02-11T15:32:50.212Z,8.50
2023-02-11T15:38:43.139Z,9.00
2023-02-11T15:44:43.835Z,9.90
2023-02-11T15:50:34.080Z,8.70
2023-02-11T15:56:44.735Z,8.70
2023-02-11T16:02:25.532Z,8.10
2023-02-11T16:08:35.618Z,7.60
2023-02-11T16:14:39.493Z,7.80
2023-02-11T16:20:44.298Z,7.90
2023-02-11T16:26:43.892Z,6.90
2023-02-11T16:32:40.753Z,7.40
2023-02-11T16:38:35.770Z,7.90
2023-02-11T16:44:17.770Z,6.00
2023-02-11T16:50:21.405Z,6.30
2023-02-11T16:56:07.347Z,6.70
2023-02-11T17:02:11.826Z,5.70
2023-02-11T17:07:33.615Z,5.30
2023-02-11T17:13:37.164Z,5.90
2023-02-11T17:19:23.640Z,5.30
2023-02-11T17:25:16.895Z,6.00
2023-02-11T17:31:21.524Z,6.10
2023-02-11T17:37:29.688Z,5.70
2023-02-11T17:43:33.157Z,6.00
2023-02-11T17:49:23.739Z,5.60
2023-02-11T17:55:27.910Z,5.70
2023-02-11T18:01:33.457Z,5.20
2023-02-11T18:07:37.274Z,5.90
2023-02-11T18:13:40.676Z,5.90
2023-02-11T18:19:30.491Z,5.20
2023-02-11T18:25:17.382Z,5.70
2023-02-11T18:31:04.300Z,4.90
2023-02-11T18:36:37.247Z,5.60
2023-02-11T18:42:09.845Z,5.50
2023-02-11T18:48:06.219Z,5.20
2023-02-11T18:54:09.401Z,4.80
2023-02-11T19:00:04.005Z,5.80
2023-02-11T19:06:06.695Z,5.30
2023-02-11T19:11:50.045Z,5.20
2023-02-11T19:17:26.336Z,5.30
2023-02-11T19:23:31.605Z,5.30
2023-02-11T19:28:55.859Z,5.00
2023-02-11T19:34:42.938Z,5.30
2023-02-11T19:40:24.136Z,6.60
2023-02-11T19:46:17.428Z,5.20
2023-02-11T19:51:43.633Z,6.40
2023-02-11T19:57:02.679Z,6.50
2023-02-11T20:03:07.312Z,6.40
2023-02-11T20:08:20.094Z,7.20
2023-02-11T20:14:05.980Z,6.70
2023-02-11T20:19:24.760Z,6.90
2023-02-11T20:25:11.878Z,7.20
2023-02-11T20:30:42.550Z,6.20
2023-02-11T20:35:48.517Z,6.60
2023-02-11T20:41:15.718Z,6.10
2023-02-11T20:46:45.791Z,5.70
2023-02-11T20:52:32.192Z,6.90
2023-02-11T20:58:21.100Z,5.60
2023-02-11T21:03:35.296Z,5.70
2023-02-11T21:08:51.285Z,6.00
2023-02-11T21:18:56.898Z,5.20
2023-02-11T21:24:16.730Z,5.80
2023-02-11T21:29:36.696Z,5.50
2023-02-11T21:35:15.350Z,5.10
2023-02-11T21:40:27.247Z,4.90
2023-02-11T21:46:31.943Z,4.70
2023-02-11T21:52:36.311Z,4.60
2023-02-11T21:58:23.918Z,4.50
2023-02-11T22:04:27.340Z,5.10
2023-02-11T22:10:21.630Z,5.10
2023-02-11T22:16:25.410Z,5.30
2023-02-11T22:22:27.704Z,4.30
2023-02-11T22:28:31.204Z,5.50
2023-02-11T22:34:25.557Z,5.40
2023-02-11T22:40:29.214Z,4.70
2023-02-11T22:46:32.630Z,4.80
2023-02-11T22:52:36.148Z,5.00
2023-02-11T22:58:39.558Z,4.50
2023-02-11T23:04:43.063Z,5.20
2023-02-11T23:10:46.676Z,4.40
2023-02-11T23:16:41.800Z,5.20
2023-02-11T23:22:45.312Z,5.60
2023-02-11T23:28:48.751Z,4.40
2023-02-11T23:34:43.565Z,4.80
2023-02-11T23:40:41.836Z,5.20
2023-02-11T23:46:45.261Z,4.20
2023-02-11T23:52:48.711Z,4.80
2023-02-11T23:58:51.266Z,6.50
